KLM1015 EGKK-EHAM
Flight info
| Callsign | KLM1015 |
|---|---|
| Flight time | 0h 48m |
| Altitude | 29000 |
| Route | FRANE M604 GASBA M197 REDFA |
| Aircraft | E190/M-SDE3GILORVW/S |
Departure
| Time | 2026-05-04 13:11 |
|---|---|
| Airport | London Gatwick Airport (EGKK) |
Arrival
| Time | 2026-05-04 13:59 |
|---|---|
| Airport | Amsterdam Airport Schiphol (EHAM) |
| Time | Latitude | Longitude | Altitude | Speed | Heading |
|---|---|---|---|---|---|
| 2026-05-04 12:36 | 51.15856 | -0.17425 | 203 ft | 0 kts | 349° |
| 2026-05-04 12:51 | 51.15840 | -0.17421 | 209 ft | 4 kts | 346° |
| 2026-05-04 12:52 | 51.15815 | -0.17409 | 207 ft | 4 kts | 336° |
| 2026-05-04 12:52 | 51.15792 | -0.17388 | 213 ft | 4 kts | 309° |
| 2026-05-04 12:52 | 51.15784 | -0.17360 | 206 ft | 1 kts | 257° |
| 2026-05-04 12:52 | 51.15785 | -0.17353 | 207 ft | 0 kts | 257° |
| 2026-05-04 12:58 | 51.15784 | -0.17359 | 203 ft | 2 kts | 257° |
| 2026-05-04 12:58 | 51.15780 | -0.17390 | 203 ft | 3 kts | 262° |
| 2026-05-04 12:59 | 51.15780 | -0.17393 | 203 ft | 0 kts | 265° |
| 2026-05-04 13:01 | 51.15779 | -0.17400 | 203 ft | 1 kts | 258° |
| 2026-05-04 13:01 | 51.15775 | -0.17427 | 207 ft | 4 kts | 256° |
| 2026-05-04 13:01 | 51.15761 | -0.17482 | 212 ft | 6 kts | 232° |
| 2026-05-04 13:02 | 51.15713 | -0.17496 | 208 ft | 9 kts | 167° |
| 2026-05-04 13:02 | 51.15643 | -0.17471 | 211 ft | 12 kts | 167° |
| 2026-05-04 13:02 | 51.15555 | -0.17440 | 207 ft | 14 kts | 168° |
| 2026-05-04 13:02 | 51.15456 | -0.17406 | 207 ft | 15 kts | 167° |
| 2026-05-04 13:03 | 51.15350 | -0.17368 | 206 ft | 16 kts | 167° |
| 2026-05-04 13:03 | 51.15299 | -0.17456 | 209 ft | 11 kts | 262° |
| 2026-05-04 13:03 | 51.15284 | -0.17581 | 207 ft | 12 kts | 257° |
| 2026-05-04 13:03 | 51.15265 | -0.17711 | 208 ft | 12 kts | 258° |
| 2026-05-04 13:04 | 51.15247 | -0.17846 | 205 ft | 12 kts | 257° |
| 2026-05-04 13:04 | 51.15228 | -0.17986 | 209 ft | 13 kts | 258° |
| 2026-05-04 13:04 | 51.15207 | -0.18137 | 205 ft | 14 kts | 258° |
| 2026-05-04 13:04 | 51.15185 | -0.18300 | 213 ft | 16 kts | 258° |
| 2026-05-04 13:05 | 51.15164 | -0.18477 | 209 ft | 17 kts | 259° |
| 2026-05-04 13:05 | 51.15138 | -0.18665 | 209 ft | 18 kts | 257° |
| 2026-05-04 13:05 | 51.15113 | -0.18866 | 212 ft | 19 kts | 259° |
| 2026-05-04 13:05 | 51.15084 | -0.19073 | 207 ft | 20 kts | 258° |
| 2026-05-04 13:06 | 51.15055 | -0.19287 | 209 ft | 20 kts | 258° |
| 2026-05-04 13:06 | 51.15024 | -0.19509 | 207 ft | 21 kts | 259° |
| 2026-05-04 13:06 | 51.14992 | -0.19740 | 203 ft | 22 kts | 257° |
| 2026-05-04 13:06 | 51.14959 | -0.19981 | 202 ft | 23 kts | 258° |
| 2026-05-04 13:07 | 51.14924 | -0.20234 | 205 ft | 24 kts | 258° |
| 2026-05-04 13:07 | 51.14894 | -0.20456 | 205 ft | 14 kts | 258° |
| 2026-05-04 13:07 | 51.14872 | -0.20612 | 207 ft | 15 kts | 257° |
| 2026-05-04 13:07 | 51.14849 | -0.20782 | 201 ft | 16 kts | 257° |
| 2026-05-04 13:08 | 51.14824 | -0.20962 | 209 ft | 17 kts | 258° |
| 2026-05-04 13:08 | 51.14800 | -0.21136 | 201 ft | 16 kts | 257° |
| 2026-05-04 13:08 | 51.14768 | -0.21303 | 206 ft | 16 kts | 257° |
| 2026-05-04 13:08 | 51.14696 | -0.21395 | 203 ft | 16 kts | 165° |
| 2026-05-04 13:09 | 51.14613 | -0.21318 | 207 ft | 13 kts | 160° |
| 2026-05-04 13:09 | 51.14543 | -0.21270 | 208 ft | 10 kts | 139° |
| 2026-05-04 13:09 | 51.14512 | -0.21181 | 206 ft | 4 kts | 91° |
| 2026-05-04 13:09 | 51.14514 | -0.21168 | 207 ft | 0 kts | 79° |
| 2026-05-04 13:10 | 51.14515 | -0.21162 | 208 ft | 6 kts | 79° |
| 2026-05-04 13:10 | 51.14574 | -0.20730 | 209 ft | 75 kts | 77° |
| 2026-05-04 13:10 | 51.14733 | -0.19573 | 209 ft | 137 kts | 77° |
| 2026-05-04 13:10 | 51.14965 | -0.17851 | 429 ft | 173 kts | 80° |
| 2026-05-04 13:11 | 51.15224 | -0.15866 | 1016 ft | 191 kts | 84° |
| 2026-05-04 13:11 | 51.15391 | -0.13686 | 1609 ft | 205 kts | 92° |
| 2026-05-04 13:11 | 51.15365 | -0.11431 | 2281 ft | 205 kts | 94° |
| 2026-05-04 13:11 | 51.15544 | -0.09173 | 2894 ft | 208 kts | 81° |
| 2026-05-04 13:12 | 51.15938 | -0.06964 | 3536 ft | 207 kts | 79° |
| 2026-05-04 13:12 | 51.16295 | -0.04688 | 4014 ft | 215 kts | 80° |
| 2026-05-04 13:12 | 51.16568 | -0.02334 | 4529 ft | 219 kts | 88° |
| 2026-05-04 13:12 | 51.16680 | 0.00012 | 5196 ft | 217 kts | 93° |
| 2026-05-04 13:13 | 51.16672 | 0.02455 | 5159 ft | 210 kts | 95° |
| 2026-05-04 13:13 | 51.16632 | 0.04665 | 5040 ft | 193 kts | 90° |
| 2026-05-04 13:13 | 51.16929 | 0.06756 | 4973 ft | 207 kts | 83° |
| 2026-05-04 13:13 | 51.17097 | 0.09062 | 4918 ft | 202 kts | 86° |
| 2026-05-04 13:14 | 51.17470 | 0.11254 | 5129 ft | 214 kts | 75° |
| 2026-05-04 13:14 | 51.17956 | 0.13385 | 5020 ft | 200 kts | 74° |
| 2026-05-04 13:14 | 51.18463 | 0.15413 | 5381 ft | 189 kts | 73° |
| 2026-05-04 13:14 | 51.19064 | 0.17159 | 6163 ft | 172 kts | 63° |
| 2026-05-04 13:15 | 51.19689 | 0.18756 | 6851 ft | 170 kts | 65° |
| 2026-05-04 13:15 | 51.20144 | 0.20494 | 7583 ft | 174 kts | 82° |
| 2026-05-04 13:15 | 51.20312 | 0.22415 | 8281 ft | 172 kts | 99° |
| 2026-05-04 13:15 | 51.20097 | 0.24214 | 8841 ft | 162 kts | 117° |
| 2026-05-04 13:16 | 51.19686 | 0.26015 | 8811 ft | 195 kts | 111° |
| 2026-05-04 13:16 | 51.19488 | 0.28306 | 9192 ft | 217 kts | 88° |
| 2026-05-04 13:16 | 51.19859 | 0.30646 | 10221 ft | 217 kts | 72° |
| 2026-05-04 13:16 | 51.20747 | 0.32544 | 11158 ft | 215 kts | 41° |
| 2026-05-04 13:17 | 51.22005 | 0.33893 | 11880 ft | 226 kts | 37° |
| 2026-05-04 13:17 | 51.23346 | 0.35312 | 12312 ft | 253 kts | 40° |
| 2026-05-04 13:17 | 51.24937 | 0.37044 | 12223 ft | 302 kts | 36° |
| 2026-05-04 13:17 | 51.26832 | 0.39196 | 11509 ft | 369 kts | 43° |
| 2026-05-04 13:18 | 51.28828 | 0.41902 | 12582 ft | 363 kts | 47° |
| 2026-05-04 13:18 | 51.30597 | 0.44692 | 13946 ft | 370 kts | 55° |
| 2026-05-04 13:18 | 51.31925 | 0.48531 | 12980 ft | 427 kts | 78° |
| 2026-05-04 13:18 | 51.32431 | 0.53254 | 12296 ft | 419 kts | 90° |
| 2026-05-04 13:19 | 51.32806 | 0.57766 | 11329 ft | 402 kts | 84° |
| 2026-05-04 13:19 | 51.33476 | 0.62043 | 10425 ft | 389 kts | 77° |
| 2026-05-04 13:19 | 51.34454 | 0.65920 | 9235 ft | 363 kts | 68° |
| 2026-05-04 13:19 | 51.35805 | 0.69327 | 8308 ft | 357 kts | 54° |
| 2026-05-04 13:20 | 51.37610 | 0.71729 | 8380 ft | 320 kts | 32° |
| 2026-05-04 13:20 | 51.39593 | 0.72664 | 9420 ft | 282 kts | 11° |
| 2026-05-04 13:20 | 51.41489 | 0.72898 | 10186 ft | 283 kts | 358° |
| 2026-05-04 13:20 | 51.43403 | 0.71947 | 10366 ft | 297 kts | 339° |
| 2026-05-04 13:21 | 51.45410 | 0.71053 | 10774 ft | 307 kts | 358° |
| 2026-05-04 13:21 | 51.47589 | 0.70676 | 10803 ft | 323 kts | 354° |
| 2026-05-04 13:21 | 51.49876 | 0.70148 | 10948 ft | 340 kts | 358° |
| 2026-05-04 13:21 | 51.52276 | 0.69997 | 11274 ft | 349 kts | 3° |
| 2026-05-04 13:22 | 51.54704 | 0.70164 | 11773 ft | 352 kts | 9° |
| 2026-05-04 13:22 | 51.57133 | 0.70735 | 12275 ft | 355 kts | 14° |
| 2026-05-04 13:22 | 51.59556 | 0.71536 | 12821 ft | 356 kts | 16° |
| 2026-05-04 13:22 | 51.61980 | 0.72418 | 13334 ft | 359 kts | 16° |
| 2026-05-04 13:23 | 51.64424 | 0.73328 | 13846 ft | 361 kts | 17° |
| 2026-05-04 13:23 | 51.66849 | 0.74243 | 14285 ft | 364 kts | 17° |
| 2026-05-04 13:23 | 51.69354 | 0.75191 | 14734 ft | 367 kts | 17° |
| 2026-05-04 13:23 | 51.71817 | 0.76129 | 15155 ft | 370 kts | 17° |
| 2026-05-04 13:24 | 51.74332 | 0.77086 | 15579 ft | 372 kts | 17° |
| 2026-05-04 13:24 | 51.76864 | 0.78054 | 16006 ft | 375 kts | 17° |
| 2026-05-04 13:24 | 51.79409 | 0.79030 | 16420 ft | 378 kts | 17° |
| 2026-05-04 13:25 | 51.84274 | 0.82179 | 17352 ft | 383 kts | 44° |
| 2026-05-04 13:25 | 51.85924 | 0.85521 | 17758 ft | 384 kts | 69° |
| 2026-05-04 13:25 | 51.86728 | 0.89640 | 18099 ft | 386 kts | 83° |
| 2026-05-04 13:25 | 51.87318 | 0.93901 | 18474 ft | 390 kts | 82° |
| 2026-05-04 13:26 | 51.87958 | 0.98182 | 18896 ft | 392 kts | 82° |
| 2026-05-04 13:26 | 51.88621 | 1.02470 | 19281 ft | 394 kts | 81° |
| 2026-05-04 13:26 | 51.89304 | 1.06792 | 19662 ft | 397 kts | 81° |
| 2026-05-04 13:26 | 51.89996 | 1.11138 | 20033 ft | 400 kts | 81° |
| 2026-05-04 13:27 | 51.90690 | 1.15508 | 20402 ft | 402 kts | 81° |
| 2026-05-04 13:27 | 51.91381 | 1.19857 | 20743 ft | 405 kts | 81° |
| 2026-05-04 13:27 | 51.92078 | 1.24290 | 21062 ft | 407 kts | 81° |
| 2026-05-04 13:27 | 51.92774 | 1.28748 | 21364 ft | 410 kts | 81° |
| 2026-05-04 13:28 | 51.93469 | 1.33240 | 21656 ft | 412 kts | 82° |
| 2026-05-04 13:28 | 51.94171 | 1.37753 | 21935 ft | 414 kts | 81° |
| 2026-05-04 13:28 | 51.94887 | 1.42283 | 22211 ft | 416 kts | 81° |
| 2026-05-04 13:28 | 51.95600 | 1.46839 | 22479 ft | 418 kts | 81° |
| 2026-05-04 13:29 | 51.96302 | 1.51395 | 22655 ft | 422 kts | 81° |
| 2026-05-04 13:29 | 51.97004 | 1.56018 | 22898 ft | 425 kts | 82° |
| 2026-05-04 13:29 | 51.97707 | 1.60686 | 23158 ft | 427 kts | 82° |
| 2026-05-04 13:29 | 51.98407 | 1.65381 | 23389 ft | 429 kts | 82° |
| 2026-05-04 13:30 | 51.99103 | 1.70078 | 23154 ft | 426 kts | 82° |
| 2026-05-04 13:30 | 51.99830 | 1.74625 | 22995 ft | 407 kts | 80° |
| 2026-05-04 13:30 | 52.00559 | 1.79080 | 23039 ft | 413 kts | 81° |
| 2026-05-04 13:30 | 52.01256 | 1.83525 | 23052 ft | 418 kts | 81° |
| 2026-05-04 13:31 | 52.01966 | 1.88138 | 22784 ft | 421 kts | 81° |
| 2026-05-04 13:31 | 52.02675 | 1.92760 | 22493 ft | 420 kts | 81° |
| 2026-05-04 13:31 | 52.03356 | 1.97219 | 22229 ft | 421 kts | 81° |
| 2026-05-04 13:31 | 52.04060 | 2.01849 | 21965 ft | 420 kts | 81° |
| 2026-05-04 13:32 | 52.04762 | 2.06448 | 21697 ft | 418 kts | 81° |
| 2026-05-04 13:32 | 52.05454 | 2.11006 | 21436 ft | 416 kts | 81° |
| 2026-05-04 13:32 | 52.06147 | 2.15570 | 21183 ft | 413 kts | 81° |
| 2026-05-04 13:32 | 52.06833 | 2.20090 | 20924 ft | 411 kts | 81° |
| 2026-05-04 13:33 | 52.07516 | 2.24600 | 20666 ft | 409 kts | 82° |
| 2026-05-04 13:33 | 52.08192 | 2.29076 | 20414 ft | 407 kts | 82° |
| 2026-05-04 13:33 | 52.08864 | 2.33533 | 20163 ft | 405 kts | 82° |
| 2026-05-04 13:33 | 52.09530 | 2.37967 | 19914 ft | 403 kts | 82° |
| 2026-05-04 13:34 | 52.10191 | 2.42381 | 19670 ft | 400 kts | 82° |
| 2026-05-04 13:34 | 52.10850 | 2.46779 | 19412 ft | 398 kts | 81° |
| 2026-05-04 13:34 | 52.11845 | 2.50978 | 19093 ft | 397 kts | 67° |
| 2026-05-04 13:34 | 52.13218 | 2.54855 | 18931 ft | 395 kts | 63° |
| 2026-05-04 13:35 | 52.14639 | 2.58675 | 18753 ft | 394 kts | 64° |
| 2026-05-04 13:35 | 52.17414 | 2.66266 | 18207 ft | 390 kts | 64° |
| 2026-05-04 13:35 | 52.18795 | 2.70055 | 17941 ft | 388 kts | 64° |
| 2026-05-04 13:36 | 52.20170 | 2.73852 | 17674 ft | 387 kts | 64° |
| 2026-05-04 13:36 | 52.21531 | 2.77625 | 17400 ft | 385 kts | 64° |
| 2026-05-04 13:36 | 52.22881 | 2.81377 | 17133 ft | 384 kts | 64° |
| 2026-05-04 13:36 | 52.24222 | 2.85113 | 16878 ft | 382 kts | 64° |
| 2026-05-04 13:37 | 52.25565 | 2.88858 | 16622 ft | 382 kts | 64° |
| 2026-05-04 13:37 | 52.26890 | 2.92560 | 16365 ft | 381 kts | 64° |
| 2026-05-04 13:37 | 52.28222 | 2.96290 | 16104 ft | 379 kts | 64° |
| 2026-05-04 13:37 | 52.29119 | 2.98802 | 15938 ft | 379 kts | 64° |
| 2026-05-04 13:38 | 52.30867 | 3.03710 | 15602 ft | 377 kts | 64° |
| 2026-05-04 13:38 | 52.32184 | 3.07413 | 15351 ft | 375 kts | 64° |
| 2026-05-04 13:38 | 52.33495 | 3.11106 | 15106 ft | 374 kts | 64° |
| 2026-05-04 13:38 | 52.34797 | 3.14776 | 14859 ft | 369 kts | 64° |
| 2026-05-04 13:39 | 52.36067 | 3.18307 | 14598 ft | 352 kts | 63° |
| 2026-05-04 13:39 | 52.37285 | 3.21621 | 14363 ft | 336 kts | 63° |
| 2026-05-04 13:39 | 52.38476 | 3.24848 | 14126 ft | 326 kts | 63° |
| 2026-05-04 13:39 | 52.39624 | 3.28012 | 13889 ft | 321 kts | 63° |
| 2026-05-04 13:40 | 52.40752 | 3.31150 | 13633 ft | 319 kts | 64° |
| 2026-05-04 13:40 | 52.41873 | 3.34285 | 13372 ft | 318 kts | 64° |
| 2026-05-04 13:40 | 52.42985 | 3.37407 | 13112 ft | 316 kts | 64° |
| 2026-05-04 13:40 | 52.44092 | 3.40518 | 12844 ft | 315 kts | 64° |
| 2026-05-04 13:41 | 52.44993 | 3.43759 | 12639 ft | 313 kts | 77° |
| 2026-05-04 13:41 | 52.45517 | 3.47226 | 12342 ft | 313 kts | 83° |
| 2026-05-04 13:41 | 52.45993 | 3.50698 | 12041 ft | 311 kts | 82° |
| 2026-05-04 13:42 | 52.46955 | 3.57547 | 11565 ft | 308 kts | 82° |
| 2026-05-04 13:42 | 52.47437 | 3.60980 | 11315 ft | 309 kts | 82° |
| 2026-05-04 13:42 | 52.47913 | 3.64362 | 11068 ft | 307 kts | 82° |
| 2026-05-04 13:42 | 52.48394 | 3.67780 | 10812 ft | 306 kts | 82° |
| 2026-05-04 13:43 | 52.48874 | 3.71176 | 10585 ft | 305 kts | 82° |
| 2026-05-04 13:43 | 52.49350 | 3.74555 | 10341 ft | 304 kts | 82° |
| 2026-05-04 13:43 | 52.49824 | 3.77926 | 10099 ft | 302 kts | 82° |
| 2026-05-04 13:43 | 52.50296 | 3.81288 | 9853 ft | 301 kts | 82° |
| 2026-05-04 13:44 | 52.50763 | 3.84632 | 9584 ft | 299 kts | 82° |
| 2026-05-04 13:44 | 52.51226 | 3.87953 | 9319 ft | 298 kts | 82° |
| 2026-05-04 13:44 | 52.51532 | 3.90150 | 9159 ft | 297 kts | 82° |
| 2026-05-04 13:44 | 52.51992 | 3.93451 | 8883 ft | 295 kts | 82° |
| 2026-05-04 13:45 | 52.52367 | 3.96741 | 8655 ft | 293 kts | 94° |
| 2026-05-04 13:45 | 52.51679 | 4.00915 | 8345 ft | 288 kts | 122° |
| 2026-05-04 13:45 | 52.50838 | 4.03912 | 8000 ft | 288 kts | 120° |
| 2026-05-04 13:45 | 52.50051 | 4.06921 | 7735 ft | 285 kts | 120° |
| 2026-05-04 13:46 | 52.49556 | 4.08958 | 7545 ft | 285 kts | 112° |
| 2026-05-04 13:46 | 52.49180 | 4.12155 | 7315 ft | 285 kts | 105° |
| 2026-05-04 13:46 | 52.48853 | 4.15313 | 7128 ft | 284 kts | 107° |
| 2026-05-04 13:46 | 52.48486 | 4.18477 | 7021 ft | 279 kts | 107° |
| 2026-05-04 13:47 | 52.48114 | 4.21619 | 6985 ft | 282 kts | 106° |
| 2026-05-04 13:47 | 52.47732 | 4.24772 | 6978 ft | 284 kts | 107° |
| 2026-05-04 13:47 | 52.47344 | 4.27935 | 6978 ft | 282 kts | 108° |
| 2026-05-04 13:47 | 52.46955 | 4.31105 | 6974 ft | 284 kts | 107° |
| 2026-05-04 13:48 | 52.46568 | 4.34262 | 6986 ft | 284 kts | 107° |
| 2026-05-04 13:48 | 52.46174 | 4.37439 | 6863 ft | 288 kts | 108° |
| 2026-05-04 13:48 | 52.45770 | 4.40654 | 6549 ft | 285 kts | 108° |
| 2026-05-04 13:48 | 52.45377 | 4.43805 | 6324 ft | 279 kts | 107° |
| 2026-05-04 13:49 | 52.44998 | 4.46915 | 6071 ft | 279 kts | 107° |
| 2026-05-04 13:49 | 52.44616 | 4.50032 | 5820 ft | 279 kts | 107° |
| 2026-05-04 13:49 | 52.44228 | 4.53156 | 5563 ft | 279 kts | 107° |
| 2026-05-04 13:49 | 52.43844 | 4.56227 | 5306 ft | 278 kts | 107° |
| 2026-05-04 13:50 | 52.43453 | 4.59341 | 5047 ft | 275 kts | 107° |
| 2026-05-04 13:50 | 52.43085 | 4.62276 | 4808 ft | 272 kts | 107° |
| 2026-05-04 13:50 | 52.42641 | 4.65347 | 4556 ft | 272 kts | 109° |
| 2026-05-04 13:50 | 52.42215 | 4.68362 | 4282 ft | 272 kts | 108° |
| 2026-05-04 13:51 | 52.41809 | 4.71368 | 4029 ft | 269 kts | 107° |
| 2026-05-04 13:51 | 52.41414 | 4.74375 | 3779 ft | 269 kts | 107° |
| 2026-05-04 13:51 | 52.41031 | 4.77366 | 3526 ft | 269 kts | 107° |
| 2026-05-04 13:51 | 52.40651 | 4.80350 | 3280 ft | 266 kts | 107° |
| 2026-05-04 13:52 | 52.39906 | 4.86278 | 2771 ft | 265 kts | 103° |
| 2026-05-04 13:52 | 52.39895 | 4.89215 | 2506 ft | 258 kts | 88° |
| 2026-05-04 13:52 | 52.40116 | 4.92061 | 2347 ft | 252 kts | 87° |
| 2026-05-04 13:53 | 52.40325 | 4.94898 | 2037 ft | 250 kts | 88° |
| 2026-05-04 13:53 | 52.40489 | 4.97687 | 1982 ft | 238 kts | 90° |
| 2026-05-04 13:53 | 52.40598 | 5.00348 | 1938 ft | 233 kts | 90° |
| 2026-05-04 13:54 | 52.40622 | 5.05540 | 2042 ft | 225 kts | 110° |
| 2026-05-04 13:54 | 52.39802 | 5.07600 | 2153 ft | 214 kts | 148° |
| 2026-05-04 13:54 | 52.36958 | 5.08669 | 2013 ft | 211 kts | 186° |
| 2026-05-04 13:55 | 52.35515 | 5.08327 | 2036 ft | 206 kts | 211° |
| 2026-05-04 13:55 | 52.33234 | 5.05597 | 1980 ft | 191 kts | 238° |
| 2026-05-04 13:55 | 52.32678 | 5.03731 | 1933 ft | 185 kts | 266° |
| 2026-05-04 13:56 | 52.32631 | 5.01691 | 1903 ft | 179 kts | 274° |
| 2026-05-04 13:56 | 52.32508 | 4.99670 | 2014 ft | 179 kts | 270° |
| 2026-05-04 13:56 | 52.32373 | 4.95563 | 2012 ft | 187 kts | 275° |
| 2026-05-04 13:57 | 52.32292 | 4.93428 | 1707 ft | 187 kts | 271° |
| 2026-05-04 13:57 | 52.32221 | 4.91333 | 1462 ft | 178 kts | 274° |
| 2026-05-04 13:58 | 52.32049 | 4.85948 | 778 ft | 139 kts | 276° |
| 2026-05-04 13:58 | 52.31954 | 4.83005 | 428 ft | 123 kts | 275° |
| 2026-05-04 13:58 | 52.31907 | 4.81599 | 280 ft | 121 kts | 274° |
| 2026-05-04 13:59 | 52.31855 | 4.80223 | 103 ft | 124 kts | 273° |
| 2026-05-04 13:59 | 52.31810 | 4.78874 | 0 ft | 104 kts | 271° |
| 2026-05-04 13:59 | 52.31759 | 4.77437 | -3 ft | 34 kts | 266° |
| 2026-05-04 14:00 | 52.31741 | 4.77065 | -4 ft | 32 kts | 257° |
| 2026-05-04 14:00 | 52.31551 | 4.76521 | -2 ft | 23 kts | 256° |
| 2026-05-04 14:00 | 52.31540 | 4.76256 | -2 ft | 24 kts | 266° |
| 2026-05-04 14:01 | 52.31530 | 4.75989 | -2 ft | 24 kts | 267° |
| 2026-05-04 14:01 | 52.31520 | 4.75709 | -2 ft | 25 kts | 266° |
| 2026-05-04 14:01 | 52.31504 | 4.75176 | -3 ft | 24 kts | 266° |
| 2026-05-04 14:02 | 52.31493 | 4.74904 | -2 ft | 24 kts | 266° |
| 2026-05-04 14:02 | 52.31487 | 4.74703 | -2 ft | 17 kts | 267° |
| 2026-05-04 14:02 | 52.31481 | 4.74498 | -2 ft | 19 kts | 265° |
| 2026-05-04 14:02 | 52.31466 | 4.74298 | -2 ft | 12 kts | 243° |
| 2026-05-04 14:03 | 52.31444 | 4.74282 | -2 ft | 3 kts | 178° |
| 2026-05-04 14:03 | 52.31410 | 4.74284 | -2 ft | 6 kts | 181° |
| 2026-05-04 14:03 | 52.31362 | 4.74279 | -2 ft | 8 kts | 183° |
| 2026-05-04 14:03 | 52.31290 | 4.74273 | -2 ft | 12 kts | 183° |
| 2026-05-04 14:04 | 52.30992 | 4.74246 | -2 ft | 30 kts | 184° |
| 2026-05-04 14:04 | 52.30784 | 4.74226 | -2 ft | 31 kts | 183° |
| 2026-05-04 14:04 | 52.30567 | 4.74205 | -2 ft | 31 kts | 183° |
| 2026-05-04 14:05 | 52.30243 | 4.74452 | 9 ft | 25 kts | 131° |
| 2026-05-04 14:05 | 52.30125 | 4.74671 | 7 ft | 27 kts | 131° |
| 2026-05-04 14:05 | 52.29987 | 4.74925 | -2 ft | 29 kts | 131° |
| 2026-05-04 14:06 | 52.29871 | 4.75141 | -2 ft | 18 kts | 130° |
| 2026-05-04 14:06 | 52.29791 | 4.75293 | -2 ft | 17 kts | 129° |
| 2026-05-04 14:06 | 52.29796 | 4.75475 | -2 ft | 18 kts | 58° |
| 2026-05-04 14:06 | 52.29861 | 4.75647 | -2 ft | 17 kts | 56° |
| 2026-05-04 14:07 | 52.29926 | 4.75812 | -2 ft | 18 kts | 59° |
| 2026-05-04 14:07 | 52.30002 | 4.75954 | -2 ft | 15 kts | 4° |
| 2026-05-04 14:07 | 52.30066 | 4.75854 | -2 ft | 12 kts | 312° |
| 2026-05-04 14:07 | 52.30106 | 4.75818 | -2 ft | 5 kts | 337° |
| 2026-05-04 14:08 | 52.30137 | 4.75790 | -2 ft | 6 kts | 328° |
| 2026-05-04 14:08 | 52.30177 | 4.75750 | -2 ft | 6 kts | 328° |
| 2026-05-04 14:08 | 52.30209 | 4.75718 | -2 ft | 4 kts | 328° |
| 2026-05-04 14:08 | 52.30212 | 4.75708 | -2 ft | 1 kts | 300° |
| 2026-05-04 14:09 | 52.30204 | 4.75672 | -2 ft | 4 kts | 235° |
| 2026-05-04 14:09 | 52.30194 | 4.75647 | -2 ft | 0 kts | 237° |